24 Datensätze sind 1 Tag. Aufzeichnung ab 07. Oktober 2014.
Werte (Summe von Anzahl und Position darf nicht größer sein als mögliche Datensätze).
Anzahl:
Position: Summe:
\ 19071 Datensätze möglich.
  20 letzte Aufzeichnungen
gezeigte Daten 20 ab Position 1    Summe der Auswahl = 21
20.02.2017 / 19:29 Uhr bis 21.02.2017 / 14:29 Uhr
Regenmenge 0 Liter

Datum/Zeit Temp. Taupunkt Luftfeuchte Wind speed Wind böhe Wind Temp. Regen Summe Luftdruck
21.02.2017 | 15:29 Uhr 7.6C 4.4C 80% 1.1 kmh 1.1kmh 7.0C 0.0mm 991.9736mBar/hPa
21.02.2017 | 14:29 Uhr 7.9C 4.5C 79% 8.1 kmh 1.3kmh 6.6C 0.0mm 991.7236mBar/hPa
21.02.2017 | 13:29 Uhr 9.1C 4.5C 73% 6.2 kmh 1.4kmh 9.0C 0.0mm 990.9736mBar/hPa
21.02.2017 | 12:29 Uhr 9.6C 4.2C 69% 2.2 kmh 2.6kmh 10.6C 0.0mm 990.9111mBar/hPa
21.02.2017 | 11:30 Uhr 9.1C 4.9C 75% 8.1 kmh 1.8kmh 9.5C 0.0mm 990.8486mBar/hPa
21.02.2017 | 10:29 Uhr 9.0C 4.8C 75% 2.4 kmh 2.1kmh 8.3C 0.0mm 990.4736mBar/hPa
21.02.2017 | 09:29 Uhr 10.1C 6.6C 79% 6.5 kmh 3.4kmh 10.7C 0.0mm 989.4736mBar/hPa
21.02.2017 | 08:29 Uhr 9.2C 7.0C 86% 0.2 kmh 1.6kmh 9.8C 0.0mm 989.2861mBar/hPa
21.02.2017 | 07:29 Uhr 8.7C 6.7C 87% 4.1 kmh 1.4kmh 8.9C 0.0mm 989.3486mBar/hPa
21.02.2017 | 06:29 Uhr 8.4C 6.4C 87% 9.1 kmh 1.2kmh 8.3C 0.0mm 989.4111mBar/hPa
21.02.2017 | 05:29 Uhr 8.4C 6.4C 87% 0.1 kmh 0.5kmh 8.0C 0.0mm 988.8486mBar/hPa
21.02.2017 | 04:29 Uhr 8.4C 6.4C 87% 1.5 kmh 2.3kmh 8.2C 0.0mm 989.1611mBar/hPa
21.02.2017 | 03:29 Uhr 8.5C 6.5C 87% 3.6 kmh 2.6kmh 8.2C 0.0mm 989.4111mBar/hPa
21.02.2017 | 02:29 Uhr 8.7C 6.5C 86% 9.2 kmh 3.0kmh 8.6C 0.0mm 989.4111mBar/hPa
21.02.2017 | 01:29 Uhr 8.4C 6.0C 85% 3.5 kmh 2.5kmh 8.4C 0.0mm 989.4736mBar/hPa
21.02.2017 | 00:29 Uhr 8.4C 5.9C 84% 8.1 kmh 1.7kmh 8.0C 0.0mm 989.8486mBar/hPa
20.02.2017 | 23:29 Uhr 8.7C 5.8C 82% 7.2 kmh 2.7kmh 8.8C 0.0mm 990.3486mBar/hPa
20.02.2017 | 22:29 Uhr 8.4C 5.5C 82% 2.3 kmh 2.6kmh 8.5C 0.0mm 990.2861mBar/hPa
20.02.2017 | 21:29 Uhr 8.1C 5.4C 83% 1.4 kmh 2.7kmh 8.2C 0.0mm 990.7861mBar/hPa
20.02.2017 | 20:29 Uhr 7.7C 5.2C 84% 2.3 kmh 2.3kmh 7.7C 0.0mm 991.3486mBar/hPa